createdAt,value
2018-04-06T00:00:09.336Z,2.54
2018-04-06T00:01:09.897Z,2.56
2018-04-06T00:02:10.463Z,2.54
2018-04-06T00:03:11.028Z,2.56
2018-04-06T00:04:11.591Z,2.39
2018-04-06T00:05:12.155Z,2.44
2018-04-06T00:06:12.721Z,2.44
2018-04-06T00:07:13.285Z,2.39
2018-04-06T00:08:13.849Z,2.38
2018-04-06T00:09:14.415Z,2.33
2018-04-06T00:10:14.978Z,2.43
2018-04-06T00:11:15.544Z,2.47
2018-04-06T00:12:16.105Z,2.38
2018-04-06T00:13:16.670Z,2.44
2018-04-06T00:14:17.236Z,2.42
2018-04-06T00:15:17.802Z,2.36
2018-04-06T00:16:18.369Z,2.39
2018-04-06T00:17:18.930Z,2.38
2018-04-06T00:18:19.495Z,2.43
2018-04-06T00:19:20.071Z,2.35
2018-04-06T00:20:20.637Z,2.38
2018-04-06T00:21:21.202Z,2.44
2018-04-06T00:22:21.769Z,2.43
2018-04-06T00:23:22.333Z,2.53
2018-04-06T00:24:22.896Z,2.42
2018-04-06T00:25:23.471Z,2.54
2018-04-06T00:26:24.035Z,2.43
2018-04-06T00:27:24.600Z,2.38
2018-04-06T00:28:25.166Z,2.31
2018-04-06T00:29:25.742Z,2.38
2018-04-06T00:30:26.309Z,2.29
2018-04-06T00:31:26.872Z,2.35
2018-04-06T00:32:27.440Z,2.29
2018-04-06T00:33:28.012Z,2.32
2018-04-06T00:34:28.575Z,2.24
2018-04-06T00:35:29.141Z,2.25
2018-04-06T00:36:29.707Z,2.31
2018-04-06T00:37:30.274Z,2.22
2018-04-06T00:38:30.838Z,2.31
2018-04-06T00:39:31.406Z,2.26
2018-04-06T00:40:31.970Z,2.29
2018-04-06T00:41:32.537Z,2.17
2018-04-06T00:42:33.101Z,2.25
2018-04-06T00:43:33.666Z,2.20
2018-04-06T00:44:34.230Z,2.17
2018-04-06T00:45:34.794Z,2.22
2018-04-06T00:46:35.359Z,2.14
2018-04-06T00:47:35.936Z,2.26
2018-04-06T00:48:36.501Z,2.25
2018-04-06T00:49:37.065Z,2.32
2018-04-06T00:50:37.631Z,2.25
2018-04-06T00:51:38.196Z,2.20
2018-04-06T00:52:38.769Z,2.24
2018-04-06T00:53:39.333Z,2.22
2018-04-06T00:54:39.897Z,2.18
2018-04-06T00:55:40.464Z,2.18
2018-04-06T00:56:41.025Z,2.17
2018-04-06T00:57:41.598Z,2.17
2018-04-06T00:58:42.151Z,2.17
2018-04-06T00:59:42.716Z,2.24
2018-04-06T01:00:43.292Z,2.13
2018-04-06T01:01:56.596Z,2.25
2018-04-06T01:02:57.162Z,2.22
2018-04-06T01:03:57.728Z,2.17
2018-04-06T01:04:58.295Z,2.08
2018-04-06T01:05:58.862Z,2.08
2018-04-06T01:06:59.435Z,2.15
2018-04-06T01:08:00.002Z,2.17
2018-04-06T01:09:00.569Z,2.10
2018-04-06T01:10:01.135Z,2.15
2018-04-06T01:11:01.699Z,2.07
2018-04-06T01:12:02.265Z,2.11
2018-04-06T01:13:02.831Z,2.14
2018-04-06T01:14:03.398Z,2.20
2018-04-06T01:15:03.962Z,2.18
2018-04-06T01:16:04.531Z,2.24
2018-04-06T01:17:05.105Z,2.22
2018-04-06T01:18:05.674Z,2.14
2018-04-06T01:19:06.246Z,2.14
2018-04-06T01:20:07.063Z,2.20
2018-04-06T01:21:07.628Z,2.10
2018-04-06T01:22:08.193Z,2.06
2018-04-06T01:23:08.758Z,2.22
2018-04-06T01:24:09.322Z,2.17
2018-04-06T01:25:09.888Z,2.08
2018-04-06T01:26:10.455Z,2.06
2018-04-06T01:27:11.022Z,2.06
2018-04-06T01:28:11.589Z,2.06
2018-04-06T01:29:12.153Z,2.07
2018-04-06T01:30:12.723Z,2.17
2018-04-06T01:31:13.285Z,2.15
2018-04-06T01:32:13.856Z,2.10
2018-04-06T01:33:14.430Z,1.97
2018-04-06T01:34:14.996Z,1.95
2018-04-06T01:35:15.564Z,2.00
2018-04-06T01:36:16.126Z,2.02
2018-04-06T01:37:16.692Z,1.99
2018-04-06T01:38:17.257Z,1.92
2018-04-06T01:39:17.822Z,1.95
2018-04-06T01:40:18.387Z,2.02
2018-04-06T01:41:18.964Z,1.94
2018-04-06T01:42:19.534Z,1.97
2018-04-06T01:43:20.095Z,1.88
2018-04-06T01:44:20.672Z,1.95
2018-04-06T01:45:21.240Z,1.91
2018-04-06T01:46:21.806Z,2.06
2018-04-06T01:47:22.374Z,2.02
2018-04-06T01:48:22.939Z,1.99
2018-04-06T01:49:23.504Z,1.97
2018-04-06T01:50:24.081Z,2.02
2018-04-06T01:51:24.648Z,1.99
2018-04-06T01:52:25.223Z,2.06
2018-04-06T01:53:25.800Z,2.07
2018-04-06T01:54:26.365Z,1.99
2018-04-06T01:55:26.933Z,2.08
2018-04-06T01:56:27.497Z,1.94
2018-04-06T01:57:28.074Z,1.94
2018-04-06T01:58:28.642Z,1.92
2018-04-06T01:59:29.206Z,1.91
2018-04-06T02:00:29.772Z,1.81
2018-04-06T02:01:30.336Z,1.77
2018-04-06T02:02:30.911Z,1.78
2018-04-06T02:03:31.495Z,1.91
2018-04-06T02:04:32.051Z,2.07
2018-04-06T02:05:32.615Z,2.07
2018-04-06T02:06:33.179Z,2.17
2018-04-06T02:07:33.744Z,2.02
2018-04-06T02:08:34.308Z,1.76
2018-04-06T02:09:34.873Z,1.68
2018-04-06T02:10:35.449Z,1.77
2018-04-06T02:11:36.014Z,1.73
2018-04-06T02:12:36.580Z,1.71
2018-04-06T02:13:37.145Z,1.70
2018-04-06T02:14:37.710Z,1.67
2018-04-06T02:15:38.275Z,1.73
2018-04-06T02:16:38.842Z,1.74
2018-04-06T02:17:39.405Z,1.62
2018-04-06T02:18:39.970Z,1.68
2018-04-06T02:19:40.534Z,1.63
2018-04-06T02:20:41.097Z,1.59
2018-04-06T02:21:41.661Z,1.68
2018-04-06T02:22:42.227Z,1.71
2018-04-06T02:23:42.791Z,1.76
2018-04-06T02:24:43.445Z,1.67
2018-04-06T02:25:43.921Z,1.67
2018-04-06T02:26:44.497Z,1.71
2018-04-06T02:27:45.064Z,1.53
2018-04-06T02:28:45.639Z,1.49
2018-04-06T02:29:46.204Z,1.49
2018-04-06T02:30:46.769Z,1.48
2018-04-06T02:31:47.334Z,1.49
2018-04-06T02:32:47.908Z,1.50
2018-04-06T02:33:48.473Z,1.49
2018-04-06T02:34:49.049Z,1.44
2018-04-06T02:35:49.618Z,1.50
2018-04-06T02:36:50.181Z,1.50
2018-04-06T02:37:50.747Z,1.50
2018-04-06T02:38:51.311Z,1.52
2018-04-06T02:39:51.886Z,1.49
2018-04-06T02:40:52.461Z,1.41
2018-04-06T02:41:53.034Z,1.30
2018-04-06T02:42:53.598Z,1.40
2018-04-06T02:43:54.161Z,1.38
2018-04-06T02:44:54.726Z,1.41
2018-04-06T02:45:55.291Z,1.42
2018-04-06T02:46:55.856Z,1.53
2018-04-06T02:47:56.418Z,1.48
2018-04-06T02:48:56.984Z,1.38
2018-04-06T02:49:57.547Z,1.44
2018-04-06T02:50:58.112Z,1.48
2018-04-06T02:51:58.676Z,1.40
2018-04-06T02:52:59.240Z,1.42
2018-04-06T02:53:59.807Z,1.37
2018-04-06T02:55:00.373Z,1.42
2018-04-06T02:56:00.938Z,1.52
2018-04-06T02:57:01.514Z,1.49
2018-04-06T02:58:02.069Z,1.41
2018-04-06T02:59:02.633Z,1.41
2018-04-06T03:00:03.200Z,1.50
2018-04-06T03:01:03.764Z,1.45
2018-04-06T03:02:04.328Z,1.45
2018-04-06T03:03:04.902Z,1.41
2018-04-06T03:04:05.462Z,1.35
2018-04-06T03:05:06.035Z,1.35
2018-04-06T03:06:06.599Z,1.37
2018-04-06T03:07:07.165Z,1.37
2018-04-06T03:08:07.728Z,1.35
2018-04-06T03:09:08.299Z,1.45
2018-04-06T03:10:08.859Z,1.41
2018-04-06T03:11:09.423Z,1.44
2018-04-06T03:12:09.988Z,1.42
2018-04-06T03:13:10.554Z,1.45
2018-04-06T03:14:11.117Z,1.37
2018-04-06T03:15:11.680Z,1.28
2018-04-06T03:16:12.244Z,1.30
2018-04-06T03:17:12.806Z,1.20
2018-04-06T03:18:13.380Z,1.14
2018-04-06T03:19:13.945Z,1.19
2018-04-06T03:20:14.511Z,1.30
2018-04-06T03:21:15.077Z,1.20
2018-04-06T03:22:15.643Z,1.17
2018-04-06T03:23:16.206Z,1.16
2018-04-06T03:24:16.772Z,1.13
2018-04-06T03:25:17.336Z,1.12
2018-04-06T03:26:17.902Z,1.04
2018-04-06T03:27:18.467Z,1.05
2018-04-06T03:28:19.031Z,1.02
2018-04-06T03:29:19.595Z,0.99
2018-04-06T03:30:20.160Z,0.99
2018-04-06T03:31:20.734Z,1.06
2018-04-06T03:32:21.300Z,1.01
2018-04-06T03:33:21.865Z,1.01
2018-04-06T03:34:22.429Z,1.04
2018-04-06T03:35:22.995Z,1.10
2018-04-06T03:36:23.558Z,1.10
2018-04-06T03:37:24.124Z,1.16
2018-04-06T03:38:24.688Z,1.14
2018-04-06T03:39:25.253Z,1.05
2018-04-06T03:40:25.828Z,1.01
2018-04-06T03:41:26.391Z,0.96
2018-04-06T03:42:26.965Z,1.02
2018-04-06T03:43:27.530Z,1.01
2018-04-06T03:44:28.106Z,1.01
2018-04-06T03:45:28.672Z,1.01
2018-04-06T03:46:29.236Z,1.02
2018-04-06T03:47:29.803Z,0.95
2018-04-06T03:48:30.367Z,1.05
2018-04-06T03:49:30.933Z,1.01
2018-04-06T03:50:31.494Z,0.99
2018-04-06T03:51:32.059Z,1.06
2018-04-06T03:52:32.634Z,1.12
2018-04-06T03:53:33.198Z,1.01
2018-04-06T03:54:33.772Z,0.99
2018-04-06T03:55:34.336Z,1.06
2018-04-06T03:56:34.900Z,0.95
2018-04-06T03:57:35.475Z,0.88
2018-04-06T03:58:36.039Z,0.87
2018-04-06T03:59:36.604Z,0.84
2018-04-06T04:00:37.171Z,0.77
2018-04-06T04:01:37.755Z,0.77
2018-04-06T04:02:38.312Z,0.96
2018-04-06T04:03:38.894Z,0.81
2018-04-06T04:04:39.453Z,0.95
2018-04-06T04:05:40.014Z,0.96
2018-04-06T04:06:40.589Z,0.84
2018-04-06T04:07:41.164Z,0.95
2018-04-06T04:08:41.730Z,0.86
2018-04-06T04:09:42.304Z,0.95
2018-04-06T04:10:42.868Z,0.91
2018-04-06T04:11:43.438Z,1.01
2018-04-06T04:12:44.008Z,1.08
2018-04-06T04:13:44.576Z,1.17
2018-04-06T04:14:45.136Z,1.14
2018-04-06T04:15:45.699Z,1.14
2018-04-06T04:16:46.273Z,1.12
2018-04-06T04:17:46.839Z,1.12
2018-04-06T04:18:47.403Z,1.17
2018-04-06T04:19:47.978Z,1.23
2018-04-06T04:20:48.547Z,1.19
2018-04-06T04:21:49.109Z,1.19
2018-04-06T04:22:49.674Z,1.17
2018-04-06T04:23:50.240Z,1.14
2018-04-06T04:24:50.810Z,1.12
2018-04-06T04:25:51.375Z,1.28
2018-04-06T04:26:51.939Z,1.37
2018-04-06T04:27:52.502Z,1.31
2018-04-06T04:28:53.066Z,1.28
2018-04-06T04:29:53.630Z,1.35
2018-04-06T04:30:54.196Z,1.28
2018-04-06T04:31:54.759Z,1.23
2018-04-06T04:32:55.324Z,1.20
2018-04-06T04:33:55.886Z,1.16
2018-04-06T04:34:56.450Z,1.30
2018-04-06T04:35:57.014Z,1.32
2018-04-06T04:36:57.578Z,1.23
2018-04-06T04:37:58.145Z,1.23
2018-04-06T04:38:58.710Z,1.16
2018-04-06T04:39:59.278Z,1.16
2018-04-06T04:40:59.841Z,1.12
2018-04-06T04:42:00.407Z,1.04
2018-04-06T04:43:00.972Z,1.01
2018-04-06T04:44:01.536Z,1.04
2018-04-06T04:45:02.101Z,0.98
2018-04-06T04:46:02.665Z,1.04
2018-04-06T04:47:03.230Z,0.96
2018-04-06T04:48:03.792Z,0.94
2018-04-06T04:49:04.356Z,0.88
2018-04-06T04:50:04.920Z,0.94
2018-04-06T04:51:05.485Z,0.95
2018-04-06T04:52:06.049Z,0.98
2018-04-06T04:53:06.613Z,0.87
2018-04-06T04:54:07.179Z,0.88
2018-04-06T04:55:07.756Z,0.81
2018-04-06T04:56:08.321Z,0.83
2018-04-06T04:57:08.887Z,0.81
2018-04-06T04:58:09.455Z,0.80
2018-04-06T04:59:10.018Z,0.91
2018-04-06T05:00:10.583Z,0.87
2018-04-06T05:01:11.145Z,0.83
2018-04-06T05:02:11.719Z,0.81
2018-04-06T05:03:12.277Z,0.81
2018-04-06T05:04:12.850Z,0.77
2018-04-06T05:05:13.416Z,0.76
2018-04-06T05:06:13.981Z,0.84
2018-04-06T05:07:14.545Z,0.88
2018-04-06T05:08:15.113Z,0.81
2018-04-06T05:09:15.688Z,0.95
2018-04-06T05:10:16.252Z,0.92
2018-04-06T05:11:16.817Z,0.95
2018-04-06T05:12:17.382Z,0.96
2018-04-06T05:13:17.948Z,0.92
2018-04-06T05:14:18.513Z,0.98
2018-04-06T05:15:19.078Z,0.99
2018-04-06T05:16:19.641Z,0.99
2018-04-06T05:17:20.205Z,1.01
2018-04-06T05:18:20.770Z,1.01
2018-04-06T05:19:21.333Z,1.10
2018-04-06T05:20:21.899Z,1.12
2018-04-06T05:21:22.465Z,1.13
2018-04-06T05:22:23.032Z,1.14
2018-04-06T05:23:23.598Z,1.12
2018-04-06T05:24:24.187Z,1.16
2018-04-06T05:25:24.743Z,1.13
2018-04-06T05:26:25.310Z,1.12
2018-04-06T05:27:25.878Z,1.28
2018-04-06T05:28:26.446Z,1.19
2018-04-06T05:29:27.021Z,1.20
2018-04-06T05:30:27.589Z,1.23
2018-04-06T05:31:28.154Z,1.40
2018-04-06T05:32:28.720Z,1.41
2018-04-06T05:33:29.289Z,1.44
2018-04-06T05:34:29.863Z,1.45
2018-04-06T05:35:30.431Z,1.40
2018-04-06T05:36:30.996Z,1.42
2018-04-06T05:37:31.620Z,1.48
2018-04-06T05:38:32.129Z,1.53
2018-04-06T05:39:32.695Z,1.49
2018-04-06T05:40:33.263Z,1.53
2018-04-06T05:41:33.840Z,1.68
2018-04-06T05:42:34.406Z,1.63
2018-04-06T05:43:34.974Z,1.50
2018-04-06T05:44:35.541Z,1.62
2018-04-06T05:45:36.111Z,1.62
2018-04-06T05:46:36.677Z,1.68
2018-04-06T05:47:37.242Z,1.66
2018-04-06T05:48:37.809Z,1.59
2018-04-06T05:49:38.375Z,1.71
2018-04-06T05:50:38.945Z,1.81
2018-04-06T05:51:39.510Z,1.70
2018-04-06T05:52:40.079Z,1.76
2018-04-06T05:53:40.647Z,1.77
2018-04-06T05:54:41.225Z,1.81
2018-04-06T05:55:41.795Z,1.78
2018-04-06T05:56:42.362Z,1.78
2018-04-06T05:57:42.929Z,1.80
2018-04-06T05:58:43.499Z,1.81
2018-04-06T05:59:44.066Z,1.81
2018-04-06T06:00:44.636Z,1.95
2018-04-06T06:01:45.202Z,1.95
2018-04-06T06:02:45.768Z,2.02
2018-04-06T06:03:46.337Z,2.08
2018-04-06T06:04:46.907Z,2.13
2018-04-06T06:05:47.473Z,2.22
2018-04-06T06:06:48.040Z,2.26
2018-04-06T06:07:48.608Z,2.22
2018-04-06T06:08:49.178Z,2.24
2018-04-06T06:09:49.794Z,2.25
2018-04-06T06:10:50.339Z,2.36
2018-04-06T06:11:50.906Z,2.32
2018-04-06T06:12:51.470Z,2.29
2018-04-06T06:13:52.040Z,2.38
2018-04-06T06:14:52.609Z,2.42
2018-04-06T06:15:53.175Z,2.36
2018-04-06T06:16:53.744Z,2.39
2018-04-06T06:17:54.312Z,2.53
2018-04-06T06:18:54.890Z,2.60
2018-04-06T06:19:55.457Z,2.56
2018-04-06T06:20:56.036Z,2.68
2018-04-06T06:21:56.604Z,2.60
2018-04-06T06:22:57.172Z,2.65
2018-04-06T06:23:57.739Z,2.69
2018-04-06T06:24:58.308Z,2.80
2018-04-06T06:25:58.877Z,2.72
2018-04-06T06:26:59.448Z,2.93
2018-04-06T06:28:00.013Z,2.92
2018-04-06T06:29:00.605Z,2.92
2018-04-06T06:30:01.149Z,2.97
2018-04-06T06:31:01.719Z,3.05
2018-04-06T06:32:02.287Z,3.11
2018-04-06T06:33:02.855Z,3.45
2018-04-06T06:34:03.425Z,3.59
2018-04-06T06:35:03.989Z,3.45
2018-04-06T06:36:04.556Z,3.63
2018-04-06T06:37:05.130Z,3.50
2018-04-06T06:38:05.694Z,3.62
2018-04-06T06:39:06.263Z,3.70
2018-04-06T06:40:06.830Z,3.65
2018-04-06T06:41:07.398Z,3.84
2018-04-06T06:42:07.967Z,3.86
2018-04-06T06:43:08.546Z,3.83
2018-04-06T06:44:09.105Z,3.95
2018-04-06T06:45:09.673Z,4.13
2018-04-06T06:46:10.253Z,4.01
2018-04-06T06:47:10.823Z,3.95
2018-04-06T06:48:11.436Z,4.04
2018-04-06T06:49:11.957Z,4.05
2018-04-06T06:50:12.525Z,4.05
2018-04-06T06:51:13.095Z,4.06
2018-04-06T06:52:13.664Z,4.01
2018-04-06T06:53:14.233Z,3.95
2018-04-06T06:54:14.814Z,4.02
2018-04-06T06:55:15.393Z,4.28
2018-04-06T06:56:15.962Z,4.24
2018-04-06T06:57:16.534Z,4.22
2018-04-06T06:58:17.101Z,4.10
2018-04-06T06:59:17.670Z,4.23
2018-04-06T07:00:18.240Z,4.32
2018-04-06T07:01:18.814Z,4.35
2018-04-06T07:02:19.378Z,4.28
2018-04-06T07:03:19.948Z,4.32
2018-04-06T07:04:20.518Z,4.55
2018-04-06T07:05:21.095Z,4.48
2018-04-06T07:06:21.664Z,4.73
2018-04-06T07:07:22.232Z,4.70
2018-04-06T07:08:22.814Z,4.97
2018-04-06T07:09:23.372Z,4.90
2018-04-06T07:10:23.941Z,5.21
2018-04-06T07:11:24.512Z,5.11
2018-04-06T07:12:25.079Z,5.30
2018-04-06T07:13:25.653Z,5.30
2018-04-06T07:14:26.220Z,5.36
2018-04-06T07:15:26.790Z,5.36
2018-04-06T07:16:27.360Z,5.50
2018-04-06T07:17:27.930Z,5.50
2018-04-06T07:18:28.500Z,5.54
2018-04-06T07:19:29.070Z,5.73
2018-04-06T07:20:29.639Z,5.61
2018-04-06T07:21:30.207Z,5.69
2018-04-06T07:22:30.776Z,6.01
2018-04-06T07:23:31.347Z,5.86
2018-04-06T07:24:31.915Z,5.89
2018-04-06T07:25:32.485Z,5.94
2018-04-06T07:26:33.054Z,6.01
2018-04-06T07:27:33.623Z,6.08
2018-04-06T07:28:34.194Z,6.07
2018-04-06T07:29:34.763Z,6.01
2018-04-06T07:30:35.338Z,6.01
2018-04-06T07:31:35.904Z,5.94
2018-04-06T07:32:36.472Z,5.97
2018-04-06T07:33:37.044Z,6.09
2018-04-06T07:34:37.615Z,6.12
2018-04-06T07:35:38.185Z,6.33
2018-04-06T07:36:38.754Z,6.56
2018-04-06T07:37:39.323Z,6.45
2018-04-06T07:38:39.894Z,6.31
2018-04-06T07:39:40.464Z,6.36
2018-04-06T07:40:41.036Z,6.35
2018-04-06T07:41:41.607Z,6.60
2018-04-06T07:42:42.177Z,6.54
2018-04-06T07:43:42.793Z,6.49
2018-04-06T07:44:43.316Z,6.77
2018-04-06T07:45:43.887Z,6.95
2018-04-06T07:46:44.470Z,7.00
2018-04-06T07:47:45.049Z,6.95
2018-04-06T07:48:45.621Z,6.89
2018-04-06T07:49:46.192Z,6.88
2018-04-06T07:50:46.767Z,6.97
2018-04-06T07:51:47.333Z,6.84
2018-04-06T07:52:47.904Z,7.00
2018-04-06T07:53:48.472Z,6.95
2018-04-06T07:54:49.043Z,6.96
2018-04-06T07:55:49.612Z,7.11
2018-04-06T07:56:50.182Z,7.11
2018-04-06T07:57:50.751Z,7.17
2018-04-06T07:58:51.321Z,7.10
2018-04-06T07:59:51.893Z,7.11
2018-04-06T08:00:52.464Z,7.17
2018-04-06T08:01:53.049Z,7.13
2018-04-06T08:02:53.605Z,7.18
2018-04-06T08:03:54.174Z,7.47
2018-04-06T08:04:54.743Z,7.50
2018-04-06T08:05:55.314Z,7.50
2018-04-06T08:06:55.896Z,7.51
2018-04-06T08:07:56.483Z,7.56
2018-04-06T08:08:57.050Z,7.61
2018-04-06T08:09:57.620Z,7.69
2018-04-06T08:10:58.192Z,7.83
2018-04-06T08:11:58.763Z,7.80
2018-04-06T08:12:59.344Z,7.76
2018-04-06T08:13:59.916Z,7.88
2018-04-06T08:15:00.486Z,7.88
2018-04-06T08:16:01.061Z,7.85
2018-04-06T08:17:01.637Z,7.98
2018-04-06T08:18:02.219Z,7.87
2018-04-06T08:19:02.779Z,7.88
2018-04-06T08:20:03.349Z,7.93
2018-04-06T08:21:03.917Z,8.00
2018-04-06T08:22:04.490Z,8.13
2018-04-06T08:23:05.061Z,8.18
2018-04-06T08:24:05.632Z,8.01
2018-04-06T08:25:06.257Z,8.00
2018-04-06T08:26:06.785Z,8.09
2018-04-06T08:27:07.355Z,8.31
2018-04-06T08:28:07.937Z,8.30
2018-04-06T08:29:08.519Z,8.27
2018-04-06T08:30:09.100Z,8.36
2018-04-06T08:31:09.671Z,8.41
2018-04-06T08:32:10.242Z,8.33
2018-04-06T08:33:10.813Z,8.61
2018-04-06T08:34:11.386Z,8.51
2018-04-06T08:35:11.957Z,8.76
2018-04-06T08:36:12.527Z,8.76
2018-04-06T08:37:13.098Z,8.60
2018-04-06T08:38:13.670Z,8.60
2018-04-06T08:39:14.244Z,8.61
2018-04-06T08:40:14.813Z,8.63
2018-04-06T08:41:15.385Z,8.95
2018-04-06T08:42:15.957Z,8.95
2018-04-06T08:43:16.529Z,8.84
2018-04-06T08:44:17.110Z,9.04
2018-04-06T08:45:17.694Z,9.22
2018-04-06T08:46:18.265Z,9.18
2018-04-06T08:47:18.836Z,8.92
2018-04-06T08:48:19.406Z,8.94
2018-04-06T08:49:19.982Z,9.03
2018-04-06T08:50:20.561Z,9.23
2018-04-06T08:51:21.138Z,9.32
2018-04-06T08:52:21.716Z,9.18
2018-04-06T08:53:22.289Z,9.34
2018-04-06T08:54:22.858Z,9.28
2018-04-06T08:55:23.441Z,9.29
2018-04-06T08:56:24.027Z,9.18
2018-04-06T08:57:24.597Z,9.43
2018-04-06T08:58:25.167Z,9.34
2018-04-06T08:59:25.744Z,9.29
2018-04-06T09:00:26.324Z,9.61
2018-04-06T09:01:26.896Z,9.77
2018-04-06T09:02:27.468Z,9.62
2018-04-06T09:03:28.042Z,9.61
2018-04-06T09:04:28.613Z,9.61
2018-04-06T09:05:29.198Z,9.77
2018-04-06T09:06:29.771Z,9.77
2018-04-06T09:07:30.343Z,9.61
2018-04-06T09:08:30.916Z,9.46
2018-04-06T09:09:31.488Z,9.69
2018-04-06T09:10:32.073Z,9.83
2018-04-06T09:11:32.644Z,9.77
2018-04-06T09:12:33.221Z,10.04
2018-04-06T09:13:33.793Z,10.01
2018-04-06T09:14:34.364Z,9.94
2018-04-06T09:15:34.950Z,10.02
2018-04-06T09:16:35.521Z,10.15
2018-04-06T09:17:36.095Z,10.33
2018-04-06T09:18:36.670Z,10.22
2018-04-06T09:19:37.243Z,10.38
2018-04-06T09:20:37.817Z,10.38
2018-04-06T09:21:38.390Z,10.22
2018-04-06T09:22:38.967Z,10.40
2018-04-06T09:23:39.538Z,10.46
2018-04-06T09:24:40.111Z,10.56
2018-04-06T09:25:40.683Z,10.53
2018-04-06T09:26:41.259Z,10.53
2018-04-06T09:27:41.842Z,10.72
2018-04-06T09:28:42.415Z,10.79
2018-04-06T09:29:42.991Z,10.78
2018-04-06T09:30:43.564Z,10.76
2018-04-06T09:31:44.143Z,10.93
2018-04-06T09:32:44.711Z,10.90
2018-04-06T09:33:45.285Z,10.78
2018-04-06T09:34:45.863Z,10.86
2018-04-06T09:35:46.436Z,10.78
2018-04-06T09:36:47.008Z,11.10
2018-04-06T09:37:47.583Z,11.11
2018-04-06T09:38:48.158Z,11.07
2018-04-06T09:39:48.733Z,11.17
2018-04-06T09:40:49.317Z,11.25
2018-04-06T09:41:49.891Z,11.14
2018-04-06T09:42:50.464Z,11.11
2018-04-06T09:43:51.038Z,11.19
2018-04-06T09:44:51.613Z,11.26
2018-04-06T09:45:52.188Z,11.41
2018-04-06T09:46:52.761Z,11.37
2018-04-06T09:47:53.334Z,11.50
2018-04-06T09:48:53.910Z,11.59
2018-04-06T09:49:54.483Z,11.45
2018-04-06T09:50:55.059Z,11.68
2018-04-06T09:51:55.631Z,11.47
2018-04-06T09:52:56.206Z,11.47
2018-04-06T09:53:56.783Z,11.48
2018-04-06T09:54:57.368Z,11.62
2018-04-06T09:55:57.946Z,11.90
2018-04-06T09:56:58.528Z,11.95
2018-04-06T09:57:59.108Z,11.57
2018-04-06T09:58:59.680Z,11.66
2018-04-06T10:00:00.265Z,11.97
2018-04-06T10:01:00.840Z,11.84
2018-04-06T10:02:01.413Z,12.02
2018-04-06T10:03:01.989Z,11.83
2018-04-06T10:04:02.571Z,12.07
2018-04-06T10:05:03.154Z,11.90
2018-04-06T10:06:03.726Z,11.99
2018-04-06T10:07:04.307Z,12.18
2018-04-06T10:08:04.891Z,12.07
2018-04-06T10:09:05.464Z,12.15
2018-04-06T10:10:06.040Z,12.07
2018-04-06T10:11:06.618Z,12.12
2018-04-06T10:12:07.191Z,11.94
2018-04-06T10:13:07.769Z,12.31
2018-04-06T10:14:08.341Z,12.29
2018-04-06T10:15:08.917Z,12.12
2018-04-06T10:16:09.492Z,12.22
2018-04-06T10:17:10.079Z,12.42
2018-04-06T10:18:10.654Z,12.45
2018-04-06T10:19:11.228Z,12.47
2018-04-06T10:20:11.806Z,12.54
2018-04-06T10:21:12.380Z,12.57
2018-04-06T10:22:12.965Z,12.58
2018-04-06T10:23:13.542Z,12.65
2018-04-06T10:24:14.117Z,12.76
2018-04-06T10:25:14.692Z,12.60
2018-04-06T10:26:15.268Z,12.76
2018-04-06T10:27:15.842Z,12.70
2018-04-06T10:28:16.421Z,12.90
2018-04-06T10:29:16.992Z,12.86
2018-04-06T10:30:17.629Z,12.97
2018-04-06T10:31:18.205Z,13.09
2018-04-06T10:32:18.780Z,12.95
2018-04-06T10:33:19.359Z,12.83
2018-04-06T10:34:19.929Z,12.95
2018-04-06T10:35:20.507Z,12.97
2018-04-06T10:36:21.081Z,13.12
2018-04-06T10:37:21.657Z,13.09
2018-04-06T10:38:22.232Z,13.03
2018-04-06T10:39:22.807Z,13.42
2018-04-06T10:40:23.394Z,13.18
2018-04-06T10:41:23.969Z,13.18
2018-04-06T10:42:24.547Z,13.19
2018-04-06T10:43:25.134Z,13.31
2018-04-06T10:44:25.710Z,13.23
2018-04-06T10:45:26.286Z,13.19
2018-04-06T10:46:26.877Z,13.15
2018-04-06T10:47:27.449Z,13.33
2018-04-06T10:48:28.037Z,13.27
2018-04-06T10:49:28.612Z,13.30
2018-04-06T10:50:29.198Z,13.33
2018-04-06T10:51:29.785Z,13.57
2018-04-06T10:52:30.360Z,13.54
2018-04-06T10:53:30.939Z,13.54
2018-04-06T10:54:31.510Z,-15.92
2018-04-06T10:55:32.086Z,-15.92
2018-04-06T10:56:32.662Z,-15.92
2018-04-06T10:57:33.239Z,-15.92
2018-04-06T10:58:33.814Z,-15.92
2018-04-06T10:59:34.396Z,-15.92
2018-04-06T11:00:34.967Z,-15.92
2018-04-06T11:01:35.543Z,-15.92
2018-04-06T11:02:36.118Z,-15.92
2018-04-06T11:03:36.693Z,-15.92
2018-04-06T11:04:37.269Z,-15.92
2018-04-06T11:05:37.846Z,-15.92
2018-04-06T11:06:38.422Z,-15.92
2018-04-06T11:07:38.997Z,-15.92
2018-04-06T11:08:39.576Z,-15.92
2018-04-06T11:09:40.158Z,-15.92
2018-04-06T11:10:40.729Z,-15.92
2018-04-06T11:11:41.307Z,-15.92
2018-04-06T11:12:41.893Z,-15.92
2018-04-06T11:13:42.469Z,-15.92
2018-04-06T11:14:43.046Z,-15.92
2018-04-06T11:15:43.621Z,-15.92
2018-04-06T11:16:44.198Z,-15.92
2018-04-06T11:17:44.773Z,-15.92
2018-04-06T11:18:45.550Z,-15.92
2018-04-06T11:19:46.126Z,-15.92
2018-04-06T11:20:46.702Z,-15.92
2018-04-06T11:21:47.280Z,-15.92
2018-04-06T11:22:47.855Z,-15.92
2018-04-06T11:23:48.433Z,-15.92
2018-04-06T11:24:49.008Z,-15.92
2018-04-06T11:25:49.584Z,-15.92
2018-04-06T11:26:50.162Z,-15.92
2018-04-06T11:27:50.738Z,-15.92
2018-04-06T11:28:51.326Z,-15.92
2018-04-06T11:29:51.902Z,-15.92
2018-04-06T11:30:52.479Z,-15.92
2018-04-06T11:31:53.055Z,-15.92
2018-04-06T11:32:53.637Z,-15.92
2018-04-06T11:33:54.222Z,-15.92
2018-04-06T11:34:54.799Z,-15.92
2018-04-06T11:35:55.374Z,-15.92
2018-04-06T11:36:55.950Z,-15.92
2018-04-06T11:37:56.536Z,-15.92
2018-04-06T11:38:57.114Z,-15.92
2018-04-06T11:39:57.692Z,-15.92
2018-04-06T11:40:58.268Z,-15.92
2018-04-06T11:41:58.844Z,-15.92
2018-04-06T11:42:59.418Z,-15.92
2018-04-06T11:43:59.995Z,-15.92
2018-04-06T11:45:00.573Z,-15.92
2018-04-06T11:46:01.152Z,-15.92
2018-04-06T11:47:01.736Z,-15.92
2018-04-06T11:48:02.313Z,-15.92
2018-04-06T11:49:02.889Z,-15.92
2018-04-06T11:50:03.466Z,-15.92
2018-04-06T11:51:04.046Z,-15.92
2018-04-06T11:52:04.621Z,-15.92
2018-04-06T11:53:05.201Z,-15.92
2018-04-06T11:54:05.835Z,-15.92
2018-04-06T11:55:06.352Z,-15.92
2018-04-06T11:56:06.929Z,-15.92
2018-04-06T11:57:07.504Z,-15.92
2018-04-06T11:58:08.086Z,-15.92
2018-04-06T11:59:08.674Z,-15.92
2018-04-06T12:00:09.244Z,-15.92
2018-04-06T12:01:09.830Z,-15.92
2018-04-06T12:02:10.407Z,-15.92
2018-04-06T12:03:10.986Z,-15.92
2018-04-06T12:04:11.562Z,-15.92
2018-04-06T12:05:12.142Z,-15.92
2018-04-06T12:06:12.716Z,-15.92
2018-04-06T12:07:13.298Z,-15.92
2018-04-06T12:08:13.873Z,-15.92
2018-04-06T12:09:14.449Z,-15.92
2018-04-06T12:10:15.024Z,-15.92
2018-04-06T12:11:15.604Z,-15.92
2018-04-06T12:12:16.180Z,-15.92
2018-04-06T12:13:16.760Z,-15.92
2018-04-06T12:14:17.334Z,-15.92
2018-04-06T12:15:17.911Z,-15.92
2018-04-06T12:16:18.489Z,-15.92
2018-04-06T12:17:19.066Z,-15.92
2018-04-06T12:18:19.642Z,-15.92
2018-04-06T12:19:20.219Z,-15.92
2018-04-06T12:20:20.809Z,-15.92
2018-04-06T12:21:21.384Z,-15.92
2018-04-06T12:22:21.962Z,-15.92
2018-04-06T12:23:22.539Z,-15.92
2018-04-06T12:24:23.117Z,-15.92
2018-04-06T12:25:23.692Z,-15.92
2018-04-06T12:26:24.270Z,-15.92
2018-04-06T12:27:24.848Z,-15.92
2018-04-06T12:28:25.424Z,-15.92
2018-04-06T12:29:26.008Z,-15.92
2018-04-06T12:30:26.590Z,-15.92
2018-04-06T12:31:27.166Z,-15.92
2018-04-06T12:32:27.743Z,-15.92
2018-04-06T12:33:28.322Z,-15.92
2018-04-06T12:34:28.899Z,-15.92
2018-04-06T12:35:29.489Z,-15.92
2018-04-06T12:36:30.065Z,-15.92
2018-04-06T12:37:30.690Z,-15.92
2018-04-06T12:38:31.222Z,-15.92
2018-04-06T12:39:31.800Z,-15.92
2018-04-06T12:40:32.377Z,-15.92
2018-04-06T12:41:32.956Z,-15.92
2018-04-06T12:42:33.542Z,-15.92
2018-04-06T12:43:34.119Z,-15.92
2018-04-06T12:44:34.697Z,-15.92
2018-04-06T12:45:35.274Z,-15.92
2018-04-06T12:46:35.852Z,-15.92
2018-04-06T12:47:36.444Z,-15.92
2018-04-06T12:48:37.018Z,-15.92
2018-04-06T12:49:37.594Z,-15.92
2018-04-06T12:50:38.171Z,-15.92
2018-04-06T12:51:38.750Z,-15.92
2018-04-06T12:52:39.328Z,-15.92
2018-04-06T12:53:39.904Z,-15.92
2018-04-06T12:54:40.483Z,-15.92
2018-04-06T12:55:41.060Z,-15.92
2018-04-06T12:56:41.638Z,-15.92
2018-04-06T12:57:42.214Z,-15.92
2018-04-06T12:58:42.796Z,-15.92
2018-04-06T12:59:43.371Z,-15.92
2018-04-06T13:00:43.948Z,-15.92
2018-04-06T13:01:44.526Z,-15.92
2018-04-06T13:02:45.112Z,-15.92
2018-04-06T13:03:45.688Z,-15.92
2018-04-06T13:04:46.265Z,-15.92
2018-04-06T13:05:46.843Z,-15.92
2018-04-06T13:06:47.420Z,-15.92
2018-04-06T13:07:47.997Z,-15.92
2018-04-06T13:08:48.573Z,-15.92
2018-04-06T13:09:49.151Z,-15.92
2018-04-06T13:10:49.730Z,-15.92
2018-04-06T13:11:50.307Z,-15.92
2018-04-06T13:12:50.883Z,-15.92